GBSAM EGPF-EGPH

Flight info

Callsign GBSAM
Flight time -1h -16m
Altitude
Route
Aircraft

Departure

Time 2026-05-03 21:36
Airport Glasgow Airport (EGPF)

Arrival

Time 2026-05-03 20:20
Airport Edinburgh Airport (EGPH)
Time Latitude Longitude Altitude Speed Heading
2026-05-03 20:15 55.97104 -3.34489 1443 ft 104 kts 338°
2026-05-03 20:15 55.97764 -3.35006 1453 ft 105 kts 338°
2026-05-03 20:15 55.98347 -3.35801 1452 ft 108 kts 300°
2026-05-03 20:15 55.98412 -3.37121 1452 ft 108 kts 260°
2026-05-03 20:16 55.98199 -3.38408 1431 ft 108 kts 248°
2026-05-03 20:16 55.97896 -3.39631 1428 ft 106 kts 243°
2026-05-03 20:16 55.97542 -3.40775 1444 ft 104 kts 239°
2026-05-03 20:16 55.97165 -3.41856 1453 ft 102 kts 237°
2026-05-03 20:17 55.96786 -3.42936 1417 ft 105 kts 238°
2026-05-03 20:17 55.96404 -3.44050 1373 ft 105 kts 237°
2026-05-03 20:17 55.95971 -3.45082 1347 ft 103 kts 218°
2026-05-03 20:17 55.95319 -3.45152 1350 ft 98 kts 151°
2026-05-03 20:18 55.94719 -3.44569 1349 ft 99 kts 150°
2026-05-03 20:18 55.94143 -3.44007 1302 ft 86 kts 149°
2026-05-03 20:18 55.93660 -3.43477 1152 ft 80 kts 143°
2026-05-03 20:18 55.93340 -3.42710 978 ft 80 kts 95°
2026-05-03 20:19 55.93459 -3.41748 753 ft 81 kts 61°
2026-05-03 20:19 55.93743 -3.40933 598 ft 73 kts 58°
2026-05-03 20:19 55.94006 -3.40163 427 ft 73 kts 59°
2026-05-03 20:19 55.94271 -3.39386 260 ft 72 kts 59°
2026-05-03 20:20 55.94526 -3.38643 115 ft 64 kts 60°
2026-05-03 20:20 55.94703 -3.38112 111 ft 45 kts 60°
2026-05-03 20:20 55.94865 -3.37633 108 ft 43 kts 59°
2026-05-03 20:20 55.95024 -3.37169 101 ft 43 kts 60°
2026-05-03 20:21 55.95169 -3.36731 104 ft 37 kts 59°
2026-05-03 20:21 55.95272 -3.36408 97 ft 14 kts 97°
2026-05-03 20:21 55.95204 -3.36361 97 ft 9 kts 150°
2026-05-03 20:21 55.95160 -3.36315 99 ft 4 kts 150°
2026-05-03 20:22 55.95153 -3.36305 99 ft 4 kts 132°
2026-05-03 20:22 55.95149 -3.36297 99 ft 0 kts 119°
2026-05-03 20:23 55.95146 -3.36283 99 ft 7 kts 109°
2026-05-03 20:23 55.95182 -3.36134 98 ft 18 kts 60°
2026-05-03 20:24 55.95187 -3.35969 98 ft 13 kts 148°
2026-05-03 20:24 55.95124 -3.35884 101 ft 13 kts 120°
2026-05-03 20:24 55.95062 -3.35724 102 ft 20 kts 121°
2026-05-03 20:24 55.94987 -3.35474 105 ft 26 kts 118°
2026-05-03 20:25 55.94899 -3.35186 107 ft 26 kts 120°
2026-05-03 20:25 55.94820 -3.34925 108 ft 22 kts 118°
2026-05-03 20:25 55.94796 -3.34720 112 ft 14 kts 50°
2026-05-03 20:25 55.94801 -3.34680 113 ft 0 kts 149°
2026-05-03 20:37 55.94797 -3.34678 113 ft 3 kts 180°
2026-05-03 20:37 55.94779 -3.34778 112 ft 14 kts 275°
2026-05-03 20:37 55.94832 -3.34959 108 ft 16 kts 299°
2026-05-03 20:38 55.94882 -3.35127 107 ft 14 kts 298°
2026-05-03 20:38 55.94928 -3.35277 106 ft 13 kts 297°
2026-05-03 20:38 55.94979 -3.35446 105 ft 18 kts 298°
2026-05-03 20:38 55.95040 -3.35643 103 ft 17 kts 300°
2026-05-03 20:39 55.95104 -3.35814 101 ft 16 kts 303°
2026-05-03 20:39 55.95171 -3.35950 99 ft 11 kts 328°
2026-05-03 20:39 55.95183 -3.35963 98 ft 0 kts 329°
2026-05-03 20:39 55.95192 -3.35974 98 ft 4 kts 325°
2026-05-03 20:40 55.95202 -3.36079 97 ft 15 kts 241°
2026-05-03 20:40 55.95139 -3.36268 99 ft 21 kts 239°
2026-05-03 20:40 55.95060 -3.36500 103 ft 22 kts 238°
2026-05-03 20:40 55.94978 -3.36741 102 ft 22 kts 237°
2026-05-03 20:41 55.94903 -3.36961 99 ft 20 kts 239°
2026-05-03 20:41 55.94838 -3.37156 100 ft 17 kts 239°
2026-05-03 20:41 55.94777 -3.37335 102 ft 18 kts 239°
2026-05-03 20:41 55.94710 -3.37530 105 ft 20 kts 239°
2026-05-03 20:42 55.94639 -3.37743 109 ft 21 kts 239°
2026-05-03 20:42 55.94597 -3.37945 107 ft 14 kts 308°
2026-05-03 20:42 55.94632 -3.37990 108 ft 0 kts 329°
2026-05-03 20:43 55.94632 -3.37991 108 ft 1 kts 329°
2026-05-03 20:43 55.94664 -3.38024 109 ft 7 kts 330°
2026-05-03 20:44 55.94716 -3.38066 111 ft 9 kts
2026-05-03 20:44 55.94731 -3.38049 111 ft 0 kts 58°
2026-05-03 20:44 55.94731 -3.38047 111 ft 2 kts 58°
2026-05-03 20:45 55.94827 -3.37759 109 ft 54 kts 59°
2026-05-03 20:45 55.95074 -3.37001 194 ft 78 kts 60°
2026-05-03 20:45 55.95333 -3.36174 420 ft 79 kts 63°
2026-05-03 20:45 55.95614 -3.35314 652 ft 80 kts 56°
2026-05-03 20:46 55.96033 -3.34669 850 ft 86 kts 11°
2026-05-03 20:46 55.96632 -3.34998 1018 ft 94 kts 333°
2026-05-03 20:46 55.97228 -3.35584 1093 ft 109 kts 334°
2026-05-03 20:46 55.97913 -3.36160 1101 ft 108 kts 338°
2026-05-03 20:47 55.98598 -3.36673 1128 ft 106 kts 339°
2026-05-03 20:47 55.99287 -3.37144 1124 ft 106 kts 341°
2026-05-03 20:47 55.99992 -3.37532 1130 ft 106 kts 348°
2026-05-03 20:47 56.00716 -3.37796 1122 ft 106 kts 352°
2026-05-03 20:48 56.01444 -3.37990 1150 ft 105 kts 355°
2026-05-03 20:48 56.02166 -3.38085 1353 ft 103 kts 358°
2026-05-03 20:48 56.02893 -3.38139 1454 ft 104 kts 360°
2026-05-03 20:48 56.03612 -3.38161 1484 ft 103 kts
2026-05-03 20:49 56.04336 -3.38169 1482 ft 104 kts
2026-05-03 20:49 56.05060 -3.38130 1487 ft 104 kts
2026-05-03 20:49 56.05782 -3.37973 1480 ft 105 kts 10°
2026-05-03 20:49 56.06500 -3.37743 1482 ft 105 kts 13°
2026-05-03 20:50 56.07211 -3.37475 1504 ft 103 kts 13°
2026-05-03 20:50 56.07921 -3.37225 1496 ft 105 kts 10°
2026-05-03 20:50 56.08640 -3.37060 1503 ft 104 kts
2026-05-03 20:50 56.09364 -3.36906 1507 ft 104 kts
2026-05-03 20:51 56.10084 -3.36752 1510 ft 105 kts
2026-05-03 20:51 56.10815 -3.36620 1495 ft 106 kts
2026-05-03 20:51 56.11549 -3.36471 1490 ft 106 kts
2026-05-03 20:51 56.12281 -3.36262 1482 ft 106 kts 12°
2026-05-03 20:52 56.12999 -3.35992 1491 ft 105 kts 13°
2026-05-03 20:52 56.13673 -3.35593 1497 ft 103 kts 36°
2026-05-03 20:52 56.14170 -3.34657 1472 ft 105 kts 50°
2026-05-03 20:52 56.14752 -3.33912 1467 ft 104 kts 13°
2026-05-03 20:53 56.15401 -3.34370 1441 ft 107 kts 303°
2026-05-03 20:53 56.15415 -3.35649 1401 ft 108 kts 254°
2026-05-03 20:53 56.15204 -3.36935 1400 ft 107 kts 254°
2026-05-03 20:53 56.15004 -3.38218 1387 ft 107 kts 252°
2026-05-03 20:54 56.14585 -3.39262 1404 ft 104 kts 212°
2026-05-03 20:54 56.13187 -3.39730 1404 ft 103 kts 194°
2026-05-03 20:54 56.12491 -3.40052 1399 ft 104 kts 194°
2026-05-03 20:55 56.11771 -3.40341 1368 ft 106 kts 191°
2026-05-03 20:55 56.11046 -3.40558 1368 ft 105 kts 188°
2026-05-03 20:55 56.10313 -3.40654 1340 ft 106 kts 186°
2026-05-03 20:55 56.09592 -3.40934 1339 ft 105 kts 195°
2026-05-03 20:56 56.08906 -3.41252 1419 ft 99 kts 194°
2026-05-03 20:56 56.08224 -3.41527 1453 ft 102 kts 192°
2026-05-03 20:56 56.07519 -3.41779 1469 ft 105 kts 191°
2026-05-03 20:56 56.06797 -3.41995 1470 ft 105 kts 189°
2026-05-03 20:57 56.06074 -3.42168 1474 ft 105 kts 187°
2026-05-03 20:57 56.05350 -3.42315 1476 ft 105 kts 187°
2026-05-03 20:57 56.04622 -3.42466 1470 ft 105 kts 187°
2026-05-03 20:57 56.03899 -3.42590 1484 ft 104 kts 185°
2026-05-03 20:58 56.03180 -3.42694 1478 ft 104 kts 185°
2026-05-03 20:58 56.02451 -3.42792 1465 ft 105 kts 185°
2026-05-03 20:58 56.01721 -3.42889 1451 ft 105 kts 184°
2026-05-03 20:58 56.00997 -3.42958 1453 ft 104 kts 183°
2026-05-03 20:59 56.00279 -3.43037 1452 ft 103 kts 184°
2026-05-03 20:59 55.99561 -3.43132 1437 ft 105 kts 185°
2026-05-03 20:59 55.98828 -3.43195 1403 ft 106 kts 179°
2026-05-03 20:59 55.98091 -3.43126 1400 ft 105 kts 177°
2026-05-03 21:00 55.97364 -3.43025 1353 ft 106 kts 174°
2026-05-03 21:00 55.96877 -3.42934 1311 ft 105 kts 174°
2026-05-03 21:00 55.96053 -3.43524 1319 ft 99 kts 239°
2026-05-03 21:00 55.96021 -3.44695 1318 ft 98 kts 298°
2026-05-03 21:01 55.96569 -3.45328 1308 ft 99 kts 360°
2026-05-03 21:01 55.97148 -3.44775 1309 ft 98 kts 60°
2026-05-03 21:01 55.97163 -3.43611 1307 ft 99 kts 120°
2026-05-03 21:01 55.96597 -3.43037 1303 ft 99 kts 185°
2026-05-03 21:02 55.96095 -3.43775 1298 ft 99 kts 257°
2026-05-03 21:02 55.96317 -3.44848 1311 ft 97 kts 326°
2026-05-03 21:02 55.96957 -3.44921 1312 ft 98 kts 31°
2026-05-03 21:02 55.97239 -3.43893 1318 ft 99 kts 101°
2026-05-03 21:03 55.96774 -3.43083 1319 ft 100 kts 172°
2026-05-03 21:03 55.96142 -3.43524 1294 ft 103 kts 223°
2026-05-03 21:03 55.95641 -3.44427 1237 ft 103 kts 226°
2026-05-03 21:03 55.95158 -3.45337 1246 ft 99 kts 227°
2026-05-03 21:04 55.94686 -3.46202 1255 ft 96 kts 212°
2026-05-03 21:04 55.94086 -3.46084 1246 ft 94 kts 134°
2026-05-03 21:04 55.93627 -3.45243 1215 ft 92 kts 137°
2026-05-03 21:04 55.93192 -3.44542 1096 ft 82 kts 137°
2026-05-03 21:05 55.92936 -3.43691 900 ft 81 kts 85°
2026-05-03 21:05 55.93145 -3.42737 695 ft 82 kts 60°
2026-05-03 21:05 55.93403 -3.41911 555 ft 74 kts 57°
2026-05-03 21:05 55.93681 -3.41128 434 ft 75 kts 57°
2026-05-03 21:06 55.93958 -3.40309 301 ft 77 kts 58°
2026-05-03 21:06 55.94227 -3.39512 198 ft 75 kts 57°
2026-05-03 21:06 55.94490 -3.38744 119 ft 69 kts 57°
2026-05-03 21:06 55.94693 -3.38150 111 ft 55 kts 58°
2026-05-03 21:07 55.94947 -3.37376 192 ft 81 kts 60°
2026-05-03 21:07 55.95223 -3.36489 441 ft 80 kts 61°
2026-05-03 21:07 55.95497 -3.35611 670 ft 82 kts 61°
2026-05-03 21:07 55.95779 -3.34712 906 ft 83 kts 63°
2026-05-03 21:08 55.96189 -3.34016 1137 ft 86 kts
2026-05-03 21:08 55.96782 -3.34354 1284 ft 97 kts 336°
2026-05-03 21:08 55.97418 -3.34859 1289 ft 101 kts 338°
2026-05-03 21:08 55.98067 -3.35337 1309 ft 100 kts 339°
2026-05-03 21:09 55.98519 -3.36221 1289 ft 102 kts 279°
2026-05-03 21:09 55.98384 -3.37458 1287 ft 102 kts 249°
2026-05-03 21:09 55.98125 -3.38655 1243 ft 105 kts 248°
2026-05-03 21:09 55.97836 -3.39836 1204 ft 104 kts 243°
2026-05-03 21:10 55.97520 -3.40941 1259 ft 97 kts 242°
2026-05-03 21:10 55.97207 -3.42008 1301 ft 99 kts 242°
2026-05-03 21:10 55.96892 -3.43140 1309 ft 104 kts 244°
2026-05-03 21:10 55.96588 -3.44334 1307 ft 107 kts 245°
2026-05-03 21:11 55.96276 -3.45529 1293 ft 106 kts 243°
2026-05-03 21:11 55.96078 -3.46752 1298 ft 104 kts 278°
2026-05-03 21:11 55.96507 -3.47695 1315 ft 102 kts 343°
2026-05-03 21:11 55.97160 -3.47376 1304 ft 103 kts 47°
2026-05-03 21:12 55.97336 -3.46198 1323 ft 101 kts 102°
2026-05-03 21:12 55.96951 -3.45201 1318 ft 103 kts 151°
2026-05-03 21:12 55.96253 -3.45197 1323 ft 103 kts 210°
2026-05-03 21:12 55.95767 -3.46092 1345 ft 101 kts 220°
2026-05-03 21:13 55.95115 -3.46154 1333 ft 104 kts 145°
2026-05-03 21:13 55.94592 -3.45224 1305 ft 106 kts 136°
2026-05-03 21:13 55.94077 -3.44404 1277 ft 89 kts 141°
2026-05-03 21:13 55.93633 -3.43745 1146 ft 81 kts 139°
2026-05-03 21:14 55.93264 -3.43014 971 ft 78 kts 106°
2026-05-03 21:14 55.93376 -3.42063 757 ft 82 kts 63°
2026-05-03 21:14 55.93650 -3.41193 606 ft 79 kts 58°
2026-05-03 21:14 55.93922 -3.40403 429 ft 74 kts 57°
2026-05-03 21:15 55.94193 -3.39624 267 ft 73 kts 58°
2026-05-03 21:15 55.94452 -3.38850 127 ft 69 kts 57°
2026-05-03 21:15 55.94660 -3.38245 111 ft 46 kts 58°
2026-05-03 21:15 55.94886 -3.37580 138 ft 78 kts 60°
2026-05-03 21:16 55.95170 -3.36700 351 ft 83 kts 59°
2026-05-03 21:16 55.95449 -3.35815 604 ft 82 kts 62°
2026-05-03 21:16 55.95706 -3.34907 838 ft 83 kts 66°
2026-05-03 21:16 55.95979 -3.33952 1042 ft 88 kts 41°
2026-05-03 21:17 55.96565 -3.33964 1233 ft 95 kts 328°
2026-05-03 21:17 55.96947 -3.34371 1277 ft 99 kts 332°
2026-05-03 21:17 55.97784 -3.35129 1296 ft 103 kts 335°
2026-05-03 21:17 55.98353 -3.35887 1313 ft 104 kts 296°
2026-05-03 21:18 55.98264 -3.37133 1271 ft 107 kts 235°
2026-05-03 21:18 55.97828 -3.38162 1292 ft 101 kts 232°
2026-05-03 21:18 55.97393 -3.39140 1293 ft 100 kts 231°
2026-05-03 21:18 55.96976 -3.40106 1315 ft 98 kts 236°
2026-05-03 21:19 55.96582 -3.41102 1322 ft 98 kts 234°
2026-05-03 21:19 55.96177 -3.42082 1331 ft 99 kts 236°
2026-05-03 21:19 55.95789 -3.43111 1327 ft 101 kts 238°
2026-05-03 21:19 55.95426 -3.44181 1322 ft 101 kts 240°
2026-05-03 21:20 55.95208 -3.45343 1315 ft 100 kts 276°
2026-05-03 21:20 55.95551 -3.46378 1317 ft 100 kts 326°
2026-05-03 21:20 55.96211 -3.46531 1311 ft 100 kts 24°
2026-05-03 21:20 55.96616 -3.45606 1317 ft 99 kts 83°
2026-05-03 21:21 55.96379 -3.44509 1336 ft 98 kts 140°
2026-05-03 21:21 55.95733 -3.44299 1333 ft 100 kts 202°
2026-05-03 21:21 55.95348 -3.45262 1324 ft 101 kts 269°
2026-05-03 21:21 55.95673 -3.46308 1322 ft 101 kts 330°
2026-05-03 21:22 55.96337 -3.46305 1321 ft 101 kts 33°
2026-05-03 21:22 55.96631 -3.45242 1321 ft 101 kts 98°
2026-05-03 21:22 55.96205 -3.44315 1310 ft 102 kts 154°
2026-05-03 21:22 55.95580 -3.43761 1320 ft 98 kts 154°
2026-05-03 21:23 55.95024 -3.43301 1292 ft 81 kts 157°
2026-05-03 21:23 55.94508 -3.42914 1121 ft 80 kts 157°
2026-05-03 21:23 55.94015 -3.42455 973 ft 80 kts 148°
2026-05-03 21:23 55.93712 -3.41661 810 ft 81 kts 94°
2026-05-03 21:24 55.93820 -3.40728 634 ft 78 kts 65°
2026-05-03 21:24 55.94091 -3.39893 408 ft 77 kts 58°
2026-05-03 21:24 55.94372 -3.39085 194 ft 76 kts 57°
2026-05-03 21:24 55.94615 -3.38377 108 ft 55 kts 57°
2026-05-03 21:25 55.94815 -3.37783 109 ft 73 kts 59°
2026-05-03 21:25 55.95081 -3.36908 275 ft 83 kts 63°
2026-05-03 21:25 55.95328 -3.36001 539 ft 82 kts 66°
2026-05-03 21:25 55.95560 -3.35052 769 ft 83 kts 67°
2026-05-03 21:26 55.95868 -3.34184 1012 ft 86 kts 30°
2026-05-03 21:26 55.96452 -3.34352 1178 ft 95 kts 330°
2026-05-03 21:26 55.97075 -3.34897 1253 ft 103 kts 338°
2026-05-03 21:26 55.97738 -3.35417 1292 ft 105 kts 338°
2026-05-03 21:27 55.98320 -3.36141 1329 ft 103 kts 302°
2026-05-03 21:27 55.98401 -3.37392 1344 ft 103 kts 269°
2026-05-03 21:27 55.98398 -3.38651 1433 ft 101 kts 271°
2026-05-03 21:27 55.98433 -3.39922 1467 ft 104 kts 274°
2026-05-03 21:28 55.98471 -3.41221 1507 ft 105 kts 276°
2026-05-03 21:28 55.98551 -3.42538 1516 ft 108 kts 277°
2026-05-03 21:28 55.98608 -3.43887 1524 ft 110 kts 274°
2026-05-03 21:28 55.98666 -3.45249 1522 ft 108 kts 275°
2026-05-03 21:29 55.98731 -3.46558 1506 ft 105 kts 276°
2026-05-03 21:29 55.98858 -3.47831 1470 ft 104 kts 283°
2026-05-03 21:29 55.98996 -3.49083 1467 ft 102 kts 280°
2026-05-03 21:29 55.99092 -3.50336 1468 ft 103 kts 277°
2026-05-03 21:30 55.99178 -3.51607 1463 ft 103 kts 277°
2026-05-03 21:30 55.99226 -3.52451 1458 ft 103 kts 276°
2026-05-03 21:30 55.99308 -3.53719 1466 ft 103 kts 277°
2026-05-03 21:30 55.99383 -3.54987 1466 ft 102 kts 275°
2026-05-03 21:31 55.99382 -3.56255 1471 ft 103 kts 264°
2026-05-03 21:31 55.99291 -3.57519 1478 ft 102 kts 264°
2026-05-03 21:31 55.99193 -3.58776 1475 ft 103 kts 262°
2026-05-03 21:31 55.99130 -3.60044 1475 ft 103 kts 271°
2026-05-03 21:32 55.99168 -3.61314 1489 ft 102 kts 275°
2026-05-03 21:32 55.99219 -3.62583 1480 ft 103 kts 275°
2026-05-03 21:32 55.99281 -3.63846 1492 ft 102 kts 276°
2026-05-03 21:32 55.99371 -3.65113 1482 ft 103 kts 279°
2026-05-03 21:33 55.99491 -3.66371 1481 ft 103 kts 281°
2026-05-03 21:33 55.99638 -3.67622 1481 ft 103 kts 283°
2026-05-03 21:33 55.99788 -3.68873 1484 ft 103 kts 282°
2026-05-03 21:33 55.99922 -3.70112 1501 ft 101 kts 283°
2026-05-03 21:34 56.00072 -3.71346 1502 ft 102 kts 283°
2026-05-03 21:34 56.00220 -3.72570 1503 ft 102 kts 282°
2026-05-03 21:34 56.00370 -3.73813 1503 ft 103 kts 282°
2026-05-03 21:34 56.00519 -3.75059 1503 ft 103 kts 282°
2026-05-03 21:35 56.00668 -3.76307 1500 ft 103 kts 282°
2026-05-03 21:35 56.00817 -3.77556 1500 ft 103 kts 283°
2026-05-03 21:35 56.00964 -3.78808 1499 ft 103 kts 283°
2026-05-03 21:35 56.01102 -3.80054 1502 ft 103 kts 281°
2026-05-03 21:36 56.01247 -3.81308 1506 ft 102 kts 282°
2026-05-03 21:36 56.01395 -3.82568 1507 ft 103 kts 283°
2026-05-03 21:36 56.01574 -3.83786 1511 ft 102 kts 287°
2026-05-03 21:36 56.01769 -3.85003 1513 ft 102 kts 287°
2026-05-03 21:37 56.01968 -3.86228 1511 ft 103 kts 285°
2026-05-03 21:37 56.02134 -3.87470 1507 ft 103 kts 281°
2026-05-03 21:37 56.02084 -3.88724 1518 ft 102 kts 256°
2026-05-03 21:37 56.01908 -3.89955 1512 ft 102 kts 257°
2026-05-03 21:38 56.01738 -3.91181 1535 ft 101 kts 256°
2026-05-03 21:38 56.01568 -3.92406 1530 ft 102 kts 257°
2026-05-03 21:38 56.01401 -3.93643 1526 ft 102 kts 258°
2026-05-03 21:38 56.01258 -3.94889 1523 ft 103 kts 259°
2026-05-03 21:39 56.01116 -3.96137 1526 ft 102 kts 259°
2026-05-03 21:39 56.00973 -3.97380 1532 ft 101 kts 259°
2026-05-03 21:39 56.00795 -3.98590 1512 ft 101 kts 253°
2026-05-03 21:39 56.00584 -3.99782 1507 ft 100 kts 255°
2026-05-03 21:40 56.00393 -4.00980 1496 ft 100 kts 256°
2026-05-03 21:40 56.00222 -4.02199 1469 ft 100 kts 257°
2026-05-03 21:40 56.00064 -4.03369 1465 ft 93 kts 258°
2026-05-03 21:40 55.99938 -4.04484 1461 ft 90 kts 260°
2026-05-03 21:41 55.99816 -4.05589 1438 ft 95 kts 257°
2026-05-03 21:41 55.99507 -4.06619 1400 ft 96 kts 226°
2026-05-03 21:41 55.98973 -4.07342 1370 ft 96 kts 219°
2026-05-03 21:41 55.98459 -4.08079 1369 ft 93 kts 222°
2026-05-03 21:42 55.97973 -4.08853 1337 ft 95 kts 222°
2026-05-03 21:42 55.97481 -4.09639 1319 ft 94 kts 224°
2026-05-03 21:42 55.97013 -4.10416 1329 ft 91 kts 226°
2026-05-03 21:42 55.96555 -4.11194 1341 ft 91 kts 224°
2026-05-03 21:43 55.96077 -4.11946 1371 ft 92 kts 223°
2026-05-03 21:43 55.95590 -4.12700 1373 ft 94 kts 224°
2026-05-03 21:43 55.95117 -4.13500 1383 ft 94 kts 225°
2026-05-03 21:43 55.94657 -4.14304 1398 ft 93 kts 239°
2026-05-03 21:44 55.94700 -4.15376 1418 ft 93 kts 312°
2026-05-03 21:44 55.95293 -4.15518 1414 ft 97 kts 35°
2026-05-03 21:44 55.95469 -4.14383 1385 ft 101 kts 96°
2026-05-03 21:44 55.95397 -4.13131 1385 ft 102 kts 97°
2026-05-03 21:45 55.95357 -4.11847 1400 ft 106 kts 90°
2026-05-03 21:45 55.95401 -4.10528 1396 ft 106 kts 86°
2026-05-03 21:45 55.95473 -4.09233 1403 ft 104 kts 83°
2026-05-03 21:45 55.95594 -4.07944 1384 ft 107 kts 76°
2026-05-03 21:46 55.95814 -4.06673 1368 ft 107 kts 73°
2026-05-03 21:46 55.96035 -4.05397 1324 ft 109 kts 72°
2026-05-03 21:46 55.96256 -4.04117 1279 ft 109 kts 74°
2026-05-03 21:46 55.96465 -4.02830 1184 ft 107 kts 75°
2026-05-03 21:47 55.96660 -4.01596 1168 ft 100 kts 75°
2026-05-03 21:47 55.96847 -4.00407 1174 ft 98 kts 75°
2026-05-03 21:47 55.97035 -3.99236 1182 ft 98 kts 75°
2026-05-03 21:47 55.97220 -3.98059 1172 ft 99 kts 74°
2026-05-03 21:48 55.97429 -3.96880 1165 ft 99 kts 72°
2026-05-03 21:48 55.97686 -3.95761 1189 ft 94 kts 39°
2026-05-03 21:48 55.98259 -3.95856 1177 ft 92 kts 324°
2026-05-03 21:48 55.98413 -3.96895 1141 ft 91 kts 268°
2026-05-03 21:49 55.98393 -3.98032 1125 ft 92 kts 270°
2026-05-03 21:49 55.98399 -3.99167 1117 ft 92 kts 272°
2026-05-03 21:49 55.98269 -4.00255 1095 ft 93 kts 225°
2026-05-03 21:49 55.97708 -4.00590 1015 ft 82 kts 167°
2026-05-03 21:50 55.97346 -3.99854 781 ft 83 kts 121°
2026-05-03 21:50 55.97242 -3.98898 554 ft 76 kts 82°
2026-05-03 21:50 55.97385 -3.98009 348 ft 70 kts 74°
2026-05-03 21:50 55.97492 -3.97387 337 ft 33 kts 71°
2026-05-03 21:51 55.97522 -3.97165 340 ft 11 kts 123°
2026-05-03 21:51 55.97485 -3.97165 350 ft 4 kts 167°
2026-05-03 21:51 55.97473 -3.97113 350 ft 6 kts 204°
2026-05-03 21:51 55.97468 -3.97130 357 ft 0 kts 252°